Independence of the Seas — C6WW4 — position and weather

sailwx.info

Track history (hours):
 
Tides and Currents Weather Stations Pressure Air Temp Water Temp Dewpoint Dewpoint Depression Visibility Wind Speed Wind Dir Waves Ship Positions

Independence of the Seas

Last reported at 2017-Sep-20 19:00 UTC. Time now 2017-Sep-22 06:36 UTC.
Position N 36°18' W 006°42'.

Length 339 m; draft 8.8 m.

Type: Passenger vessel. MMSI: 309374000.

Wind from 150 at 6 knots

Barometer 1025.1 mb
Air temperature 22.0 ° C
Visibility: greater than 10.8 NM
Dewpoint 17.3 ° C
Water temperature 21.0 ° C

Date/timePositionNaut miles runAvg speedWind from/ knotsBaromVisibWave heightAir tempDewpointWater temp
2017-Sep-20 19:00N 36°18' W 006°42'27 1.9 150 / 61025.110.8 22.017.321.0
2017-Sep-20 05:00N 36°30' W 007°12'6621.3 070 / 31024.110.8 21.019.418.0
2017-Sep-20 01:55N 36°30' W 008°34'1518.9
2017-Sep-20 01:08N 36°29' W 008°52'7617.0
2017-Sep-19 20:40N 37°32' W 009°44'419.0
2017-Sep-19 20:29N 37°36' W 009°45'918.4
2017-Sep-19 20:00N 37°45' W 009°46'918.6
2017-Sep-19 19:30N 37°54' W 009°44'918.5
2017-Sep-19 19:00N 38°03' W 009°42'918.5
2017-Sep-19 18:30N 38°12' W 009°40'918.9
2017-Sep-19 18:00N 38°21' W 009°37'918.5
2017-Sep-19 17:30N 38°29' W 009°32'918.6
2017-Sep-19 17:00N 38°36' W 009°24'916.2
2017-Sep-19 16:29N 38°41' W 009°15'611.8
2017-Sep-19 16:01N 38°42' W 009°08'0 0.7
2017-Sep-19 15:21N 38°43' W 009°07'0 0.0
2017-Sep-19 14:57N 38°43' W 009°07'0 0.0
2017-Sep-19 14:24N 38°43' W 009°07'0 0.0
2017-Sep-19 13:57N 38°43' W 009°07'0 0.0
2017-Sep-19 13:30N 38°43' W 009°07'0 0.0
2017-Sep-19 13:00N 38°43' W 009°07'0 0.0
2017-Sep-19 12:30N 38°43' W 009°07'0 0.0
2017-Sep-19 12:00N 38°43' W 009°07'0 0.0
2017-Sep-19 11:27N 38°43' W 009°07'0 0.0
2017-Sep-19 11:00N 38°43' W 009°07'0 0.0
2017-Sep-19 10:30N 38°43' W 009°07'0 0.0
2017-Sep-19 10:00N 38°43' W 009°07'0 0.0
2017-Sep-19 09:30N 38°43' W 009°07'0 0.0
2017-Sep-19 09:00N 38°43' W 009°07'0 0.0
2017-Sep-19 08:27N 38°43' W 009°07'0 0.0
2017-Sep-19 08:00N 38°43' W 009°07'0 0.0
2017-Sep-19 07:30N 38°43' W 009°07'0 0.0
2017-Sep-19 07:00N 38°43' W 009°07'1 1.3
2017-Sep-19 06:30N 38°42' W 009°08'510.3
2017-Sep-19 06:00N 38°41' W 009°14'713.8
2017-Sep-19 05:30N 38°38' W 009°22'815.7
2017-Sep-19 04:59N 38°36' W 009°32'918.0
2017-Sep-19 04:30N 38°40' W 009°42'1020.3
2017-Sep-19 04:00N 38°50' W 009°43'1019.8
2017-Sep-19 03:31N 39°00' W 009°43'1019.8
2017-Sep-19 03:00N 39°10' W 009°44'1018.8
2017-Sep-19 02:30N 39°20' W 009°44'1218.8
2017-Sep-19 01:50N 39°32' W 009°45'39511.7
2017-Sep-17 16:00N 46°00' W 008°00'27218.2 280 / 131022.1 5.4 17.812.618.0
2017-Sep-17 01:01N 49°36' W 003°54'017.7
2017-Sep-17 01:00N 49°36' W 003°53'1318.0
2017-Sep-17 00:17N 49°42' W 003°35'518.3
2017-Sep-17 00:01N 49°45' W 003°30'1019.0
2017-Sep-16 23:30N 49°50' W 003°17'1119.6
2017-Sep-16 22:57N 49°55' W 003°02'920.0
2017-Sep-16 22:30N 50°00' W 002°50'8316.9
2017-Sep-16 17:36N 50°42' W 000°58'1 9.9
2017-Sep-16 17:29N 50°43' W 000°59'816.7
2017-Sep-16 17:00N 50°46' W 001°11'510.5
2017-Sep-16 16:31N 50°49' W 001°18'3 0.2
2017-Sep-16 03:26N 50°51' W 001°20'4 8.5
2017-Sep-16 03:00N 50°48' W 001°18'510.4
2017-Sep-16 02:30N 50°46' W 001°11'815.9
2017-Sep-16 02:00N 50°43' W 000°59'612.1
2017-Sep-16 01:31N 50°37' W 000°60'4316.7
2017-Sep-15 22:57N 50°08' W 001°50'2915.0
2017-Sep-15 21:00N 49°54' W 002°30'3119.1 360 / 25 13.0 9.116.0
2017-Sep-15 19:22N 49°43' W 003°15'616.8
2017-Sep-15 19:01N 49°40' W 003°23'816.6
2017-Sep-15 18:31N 49°36' W 003°34'67015.6
2017-Sep-13 23:39N 39°23' W 009°54'417.3
2017-Sep-13 23:26N 39°19' W 009°54'716.8
2017-Sep-13 23:00N 39°12' W 009°54'816.7
2017-Sep-13 22:31N 39°04' W 009°53'816.6
2017-Sep-13 22:01N 38°55' W 009°53'816.0
2017-Sep-13 21:30N 38°47' W 009°52'815.6
2017-Sep-13 21:00N 38°40' W 009°51'815.8
2017-Sep-13 20:31N 38°36' W 009°42'917.5
2017-Sep-13 20:00N 38°36' W 009°31'917.0
2017-Sep-13 19:30N 38°39' W 009°20'613.0
2017-Sep-13 19:01N 38°41' W 009°13'4 8.8
2017-Sep-13 18:30N 38°43' W 009°07'0 0.2
2017-Sep-13 17:58N 38°43' W 009°07'0 0.0
2017-Sep-13 17:25N 38°43' W 009°07'0 0.0
2017-Sep-13 16:58N 38°43' W 009°07'0 0.0
2017-Sep-13 16:28N 38°43' W 009°07'0 0.0
2017-Sep-13 15:58N 38°43' W 009°07'0 0.0
2017-Sep-13 15:28N 38°43' W 009°07'0 0.0
2017-Sep-13 14:58N 38°43' W 009°07'0 0.0
2017-Sep-13 14:28N 38°43' W 009°07'0 0.0
2017-Sep-13 13:58N 38°43' W 009°07'0 0.0
2017-Sep-13 13:28N 38°43' W 009°07'0 0.0
2017-Sep-13 12:58N 38°43' W 009°07'0 0.0
2017-Sep-13 12:28N 38°43' W 009°07'0 0.0
2017-Sep-13 11:58N 38°43' W 009°07'0 0.0
2017-Sep-13 11:28N 38°43' W 009°07'0 0.0
2017-Sep-13 10:58N 38°43' W 009°07'0 1.0
2017-Sep-13 10:30N 38°42' W 009°08'5 9.9
2017-Sep-13 10:00N 38°41' W 009°14'815.4
2017-Sep-13 09:30N 38°37' W 009°22'1018.8
2017-Sep-13 09:00N 38°28' W 009°25'1019.7
2017-Sep-13 08:30N 38°18' W 009°25'1119.4
2017-Sep-13 07:57N 38°08' W 009°24'919.4
2017-Sep-13 07:30N 37°59' W 009°24'1019.5
2017-Sep-13 07:00N 37°49' W 009°24'4718.8
2017-Sep-13 04:30N 37°02' W 009°21'1018.6
2017-Sep-13 03:59N 36°53' W 009°18'918.8
2017-Sep-13 03:30N 36°46' W 009°10'1419.3
2017-Sep-13 02:46N 36°42' W 008°54'520.1
2017-Sep-13 02:30N 36°40' W 008°47'1320.3
2017-Sep-13 01:52N 36°36' W 008°32'720.3
2017-Sep-13 01:30N 36°34' W 008°23'1020.3
2017-Sep-13 01:00N 36°31' W 008°11'1020.2
2017-Sep-13 00:30N 36°28' W 007°59'1120.3
2017-Sep-12 23:59N 36°24' W 007°47'1021.0
2017-Sep-12 23:30N 36°21' W 007°35'10219.4
2017-Sep-12 18:14N 35°59' W 005°31'418.2
2017-Sep-12 18:00N 36°01' W 005°26'917.2
2017-Sep-12 17:30N 36°04' W 005°17'225 9.8
2017-Sep-11 18:38N 37°13' W 000°50'217.0
2017-Sep-11 18:30N 37°14' W 000°47'917.0
2017-Sep-11 17:59N 37°20' W 000°38'816.7
2017-Sep-11 17:30N 37°24' W 000°30'816.8
2017-Sep-11 17:00N 37°30' W 000°22'816.7
2017-Sep-11 16:30N 37°37' W 000°17'916.7
2017-Sep-11 15:59N 37°44' W 000°11'816.5
2017-Sep-11 15:30N 37°51' W 000°06'816.2
2017-Sep-11 14:59N 37°58' W 000°00'816.3
2017-Sep-11 14:30N 38°05' E 000°05'916.5
2017-Sep-11 13:58N 38°13' E 000°10'916.5
2017-Sep-11 13:25N 38°21' E 000°16'816.6
2017-Sep-11 12:58N 38°26' E 000°23'1316.7
2017-Sep-11 12:10N 38°37' E 000°32'316.4
2017-Sep-11 11:58N 38°40' E 000°34'5417.0
2017-Sep-11 08:46N 39°26' E 001°11'517.0
2017-Sep-11 08:29N 39°30' E 001°15'1617.2
2017-Sep-11 07:34N 39°42' E 001°27'117.4
2017-Sep-11 07:30N 39°43' E 001°28'917.8
2017-Sep-11 07:00N 39°50' E 001°36'917.7
2017-Sep-11 06:30N 39°57' E 001°43'917.8
2017-Sep-11 06:00N 40°04' E 001°50'918.0
2017-Sep-11 05:30N 40°11' E 001°57'917.7
2017-Sep-11 05:00N 40°18' E 002°04'917.9
2017-Sep-11 04:30N 40°25' E 002°12'918.0
2017-Sep-11 04:00N 40°32' E 002°19'918.2
2017-Sep-11 03:30N 40°39' E 002°26'918.2
2017-Sep-11 03:00N 40°46' E 002°34'918.0
2017-Sep-11 02:30N 40°54' E 002°41'917.7
2017-Sep-11 02:00N 41°01' E 002°49'  
Track history (hours):
 
Tides and Currents Weather Stations Pressure Air Temp Water Temp Dewpoint Dewpoint Depression Visibility Wind Speed Wind Dir Waves Ship Positions

Independence of the Seas

Last reported at 2017-Sep-20 19:00 UTC. Time now 2017-Sep-22 06:36 UTC.
Position N 36°18' W 006°42'.

Length 339 m; draft 8.8 m.

Type: Passenger vessel. MMSI: 309374000.

Wind from 150 at 6 knots

Barometer 1025.1 mb
Air temperature 22.0 ° C
Visibility: greater than 10.8 NM
Dewpoint 17.3 ° C
Water temperature 21.0 ° C

Date/timePositionNaut miles runAvg speedWind from/ knotsBaromVisibWave heightAir tempDewpointWater temp
2017-Sep-20 19:00N 36°18' W 006°42'27 1.9 150 / 61025.110.8 22.017.321.0
2017-Sep-20 05:00N 36°30' W 007°12'6621.3 070 / 31024.110.8 21.019.418.0
2017-Sep-20 01:55N 36°30' W 008°34'1518.9
2017-Sep-20 01:08N 36°29' W 008°52'7617.0
2017-Sep-19 20:40N 37°32' W 009°44'419.0
2017-Sep-19 20:29N 37°36' W 009°45'918.4
2017-Sep-19 20:00N 37°45' W 009°46'918.6
2017-Sep-19 19:30N 37°54' W 009°44'918.5
2017-Sep-19 19:00N 38°03' W 009°42'918.5
2017-Sep-19 18:30N 38°12' W 009°40'918.9
2017-Sep-19 18:00N 38°21' W 009°37'918.5
2017-Sep-19 17:30N 38°29' W 009°32'918.6
2017-Sep-19 17:00N 38°36' W 009°24'916.2
2017-Sep-19 16:29N 38°41' W 009°15'611.8
2017-Sep-19 16:01N 38°42' W 009°08'0 0.7
2017-Sep-19 15:21N 38°43' W 009°07'0 0.0
2017-Sep-19 14:57N 38°43' W 009°07'0 0.0
2017-Sep-19 14:24N 38°43' W 009°07'0 0.0
2017-Sep-19 13:57N 38°43' W 009°07'0 0.0
2017-Sep-19 13:30N 38°43' W 009°07'0 0.0
2017-Sep-19 13:00N 38°43' W 009°07'0 0.0
2017-Sep-19 12:30N 38°43' W 009°07'0 0.0
2017-Sep-19 12:00N 38°43' W 009°07'0 0.0
2017-Sep-19 11:27N 38°43' W 009°07'0 0.0
2017-Sep-19 11:00N 38°43' W 009°07'0 0.0
2017-Sep-19 10:30N 38°43' W 009°07'0 0.0
2017-Sep-19 10:00N 38°43' W 009°07'0 0.0
2017-Sep-19 09:30N 38°43' W 009°07'0 0.0
2017-Sep-19 09:00N 38°43' W 009°07'0 0.0
2017-Sep-19 08:27N 38°43' W 009°07'0 0.0
2017-Sep-19 08:00N 38°43' W 009°07'0 0.0
2017-Sep-19 07:30N 38°43' W 009°07'0 0.0
2017-Sep-19 07:00N 38°43' W 009°07'1 1.3
2017-Sep-19 06:30N 38°42' W 009°08'510.3
2017-Sep-19 06:00N 38°41' W 009°14'713.8
2017-Sep-19 05:30N 38°38' W 009°22'815.7
2017-Sep-19 04:59N 38°36' W 009°32'918.0
2017-Sep-19 04:30N 38°40' W 009°42'1020.3
2017-Sep-19 04:00N 38°50' W 009°43'1019.8
2017-Sep-19 03:31N 39°00' W 009°43'1019.8
2017-Sep-19 03:00N 39°10' W 009°44'1018.8
2017-Sep-19 02:30N 39°20' W 009°44'1218.8
2017-Sep-19 01:50N 39°32' W 009°45'39511.7
2017-Sep-17 16:00N 46°00' W 008°00'27218.2 280 / 131022.1 5.4 17.812.618.0
2017-Sep-17 01:01N 49°36' W 003°54'017.7
2017-Sep-17 01:00N 49°36' W 003°53'1318.0
2017-Sep-17 00:17N 49°42' W 003°35'518.3
2017-Sep-17 00:01N 49°45' W 003°30'1019.0
2017-Sep-16 23:30N 49°50' W 003°17'1119.6
2017-Sep-16 22:57N 49°55' W 003°02'920.0
2017-Sep-16 22:30N 50°00' W 002°50'8316.9
2017-Sep-16 17:36N 50°42' W 000°58'1 9.9
2017-Sep-16 17:29N 50°43' W 000°59'816.7
2017-Sep-16 17:00N 50°46' W 001°11'510.5
2017-Sep-16 16:31N 50°49' W 001°18'3 0.2
2017-Sep-16 03:26N 50°51' W 001°20'4 8.5
2017-Sep-16 03:00N 50°48' W 001°18'510.4
2017-Sep-16 02:30N 50°46' W 001°11'815.9
2017-Sep-16 02:00N 50°43' W 000°59'612.1
2017-Sep-16 01:31N 50°37' W 000°60'4316.7
2017-Sep-15 22:57N 50°08' W 001°50'2915.0
2017-Sep-15 21:00N 49°54' W 002°30'3119.1 360 / 25 13.0 9.116.0
2017-Sep-15 19:22N 49°43' W 003°15'616.8
2017-Sep-15 19:01N 49°40' W 003°23'816.6
2017-Sep-15 18:31N 49°36' W 003°34'67015.6
2017-Sep-13 23:39N 39°23' W 009°54'417.3
2017-Sep-13 23:26N 39°19' W 009°54'716.8
2017-Sep-13 23:00N 39°12' W 009°54'816.7
2017-Sep-13 22:31N 39°04' W 009°53'816.6
2017-Sep-13 22:01N 38°55' W 009°53'816.0
2017-Sep-13 21:30N 38°47' W 009°52'815.6
2017-Sep-13 21:00N 38°40' W 009°51'815.8
2017-Sep-13 20:31N 38°36' W 009°42'917.5
2017-Sep-13 20:00N 38°36' W 009°31'917.0
2017-Sep-13 19:30N 38°39' W 009°20'613.0
2017-Sep-13 19:01N 38°41' W 009°13'4 8.8
2017-Sep-13 18:30N 38°43' W 009°07'0 0.2
2017-Sep-13 17:58N 38°43' W 009°07'0 0.0
2017-Sep-13 17:25N 38°43' W 009°07'0 0.0
2017-Sep-13 16:58N 38°43' W 009°07'0 0.0
2017-Sep-13 16:28N 38°43' W 009°07'0 0.0
2017-Sep-13 15:58N 38°43' W 009°07'0 0.0
2017-Sep-13 15:28N 38°43' W 009°07'0 0.0
2017-Sep-13 14:58N 38°43' W 009°07'0 0.0
2017-Sep-13 14:28N 38°43' W 009°07'0 0.0
2017-Sep-13 13:58N 38°43' W 009°07'0 0.0
2017-Sep-13 13:28N 38°43' W 009°07'0 0.0
2017-Sep-13 12:58N 38°43' W 009°07'0 0.0
2017-Sep-13 12:28N 38°43' W 009°07'0 0.0
2017-Sep-13 11:58N 38°43' W 009°07'0 0.0
2017-Sep-13 11:28N 38°43' W 009°07'0 0.0
2017-Sep-13 10:58N 38°43' W 009°07'0 1.0
2017-Sep-13 10:30N 38°42' W 009°08'5 9.9
2017-Sep-13 10:00N 38°41' W 009°14'815.4
2017-Sep-13 09:30N 38°37' W 009°22'1018.8
2017-Sep-13 09:00N 38°28' W 009°25'1019.7
2017-Sep-13 08:30N 38°18' W 009°25'1119.4
2017-Sep-13 07:57N 38°08' W 009°24'919.4
2017-Sep-13 07:30N 37°59' W 009°24'1019.5
2017-Sep-13 07:00N 37°49' W 009°24'4718.8
2017-Sep-13 04:30N 37°02' W 009°21'1018.6
2017-Sep-13 03:59N 36°53' W 009°18'918.8
2017-Sep-13 03:30N 36°46' W 009°10'1419.3
2017-Sep-13 02:46N 36°42' W 008°54'520.1
2017-Sep-13 02:30N 36°40' W 008°47'1320.3
2017-Sep-13 01:52N 36°36' W 008°32'720.3
2017-Sep-13 01:30N 36°34' W 008°23'1020.3
2017-Sep-13 01:00N 36°31' W 008°11'1020.2
2017-Sep-13 00:30N 36°28' W 007°59'1120.3
2017-Sep-12 23:59N 36°24' W 007°47'1021.0
2017-Sep-12 23:30N 36°21' W 007°35'10219.4
2017-Sep-12 18:14N 35°59' W 005°31'418.2
2017-Sep-12 18:00N 36°01' W 005°26'917.2
2017-Sep-12 17:30N 36°04' W 005°17'225 9.8
2017-Sep-11 18:38N 37°13' W 000°50'217.0
2017-Sep-11 18:30N 37°14' W 000°47'917.0
2017-Sep-11 17:59N 37°20' W 000°38'816.7
2017-Sep-11 17:30N 37°24' W 000°30'816.8
2017-Sep-11 17:00N 37°30' W 000°22'816.7
2017-Sep-11 16:30N 37°37' W 000°17'916.7
2017-Sep-11 15:59N 37°44' W 000°11'816.5
2017-Sep-11 15:30N 37°51' W 000°06'816.2
2017-Sep-11 14:59N 37°58' W 000°00'816.3
2017-Sep-11 14:30N 38°05' E 000°05'916.5
2017-Sep-11 13:58N 38°13' E 000°10'916.5
2017-Sep-11 13:25N 38°21' E 000°16'816.6
2017-Sep-11 12:58N 38°26' E 000°23'1316.7
2017-Sep-11 12:10N 38°37' E 000°32'316.4
2017-Sep-11 11:58N 38°40' E 000°34'5417.0
2017-Sep-11 08:46N 39°26' E 001°11'517.0
2017-Sep-11 08:29N 39°30' E 001°15'1617.2
2017-Sep-11 07:34N 39°42' E 001°27'117.4
2017-Sep-11 07:30N 39°43' E 001°28'917.8
2017-Sep-11 07:00N 39°50' E 001°36'917.7
2017-Sep-11 06:30N 39°57' E 001°43'917.8
2017-Sep-11 06:00N 40°04' E 001°50'918.0
2017-Sep-11 05:30N 40°11' E 001°57'917.7
2017-Sep-11 05:00N 40°18' E 002°04'917.9
2017-Sep-11 04:30N 40°25' E 002°12'918.0
2017-Sep-11 04:00N 40°32' E 002°19'918.2
2017-Sep-11 03:30N 40°39' E 002°26'918.2
2017-Sep-11 03:00N 40°46' E 002°34'918.0
2017-Sep-11 02:30N 40°54' E 002°41'917.7
2017-Sep-11 02:00N 41°01' E 002°49'  

Dump ship's entire track history